createdAt,value
2024-02-11T00:02:02.096Z,12.65
2024-02-11T00:04:36.277Z,12.66
2024-02-11T00:07:10.058Z,12.43
2024-02-11T00:09:39.348Z,12.56
2024-02-11T00:12:11.044Z,12.89
2024-02-11T00:14:39.645Z,12.24
2024-02-11T00:17:11.162Z,12.48
2024-02-11T00:19:42.233Z,12.54
2024-02-11T00:22:15.092Z,12.25
2024-02-11T00:24:43.729Z,12.07
2024-02-11T00:27:15.184Z,12.00
2024-02-11T00:29:43.764Z,12.14
2024-02-11T00:32:13.641Z,12.13
2024-02-11T00:34:43.897Z,12.24
2024-02-11T00:37:16.746Z,12.69
2024-02-11T00:39:45.403Z,12.78
2024-02-11T00:42:21.492Z,12.53
2024-02-11T00:44:50.185Z,12.66
2024-02-11T00:47:24.303Z,12.24
2024-02-11T00:52:29.622Z,12.08
2024-02-11T00:55:02.466Z,12.46
2024-02-11T00:57:31.871Z,12.66
2024-02-11T01:00:01.628Z,12.17
2024-02-11T01:02:31.202Z,12.00
2024-02-11T01:05:06.469Z,12.07
2024-02-11T01:07:35.187Z,12.05
2024-02-11T01:10:11.793Z,12.13
2024-02-11T01:12:41.671Z,12.10
2024-02-11T01:15:17.862Z,12.08
2024-02-11T01:17:48.120Z,11.91
2024-02-11T01:20:19.229Z,11.42
2024-02-11T01:22:50.298Z,12.01
2024-02-11T01:25:21.561Z,12.28
2024-02-11T01:27:54.101Z,11.68
2024-02-11T01:30:24.772Z,11.79
2024-02-11T01:32:59.011Z,11.75
2024-02-11T01:35:38.411Z,11.85
2024-02-11T01:38:07.613Z,11.85
2024-02-11T01:40:37.575Z,12.17
2024-02-11T01:43:09.209Z,11.82
2024-02-11T01:45:38.574Z,11.85
2024-02-11T01:48:07.651Z,11.87
2024-02-11T01:50:40.423Z,11.66
2024-02-11T01:53:10.572Z,11.53
2024-02-11T01:55:42.889Z,11.45
2024-02-11T01:58:11.903Z,11.90
2024-02-11T02:00:43.786Z,12.07
2024-02-11T02:03:12.743Z,11.73
2024-02-11T02:05:43.818Z,11.95
2024-02-11T02:08:15.359Z,12.28
2024-02-11T02:10:46.597Z,11.86
2024-02-11T02:13:15.999Z,12.12
2024-02-11T02:15:47.142Z,11.93
2024-02-11T02:18:16.129Z,11.89
2024-02-11T02:20:51.592Z,11.84
2024-02-11T02:23:21.918Z,11.44
2024-02-11T02:25:50.977Z,11.37
2024-02-11T02:28:21.681Z,11.71
2024-02-11T02:30:54.016Z,11.80
2024-02-11T02:33:22.712Z,12.07
2024-02-11T02:35:53.244Z,12.08
2024-02-11T02:38:23.370Z,12.03
2024-02-11T02:40:55.895Z,12.03
2024-02-11T02:43:26.454Z,12.03
2024-02-11T02:45:56.775Z,12.42
2024-02-11T02:48:25.880Z,12.29
2024-02-11T02:51:01.986Z,12.41
2024-02-11T02:53:39.399Z,11.98
2024-02-11T02:56:08.682Z,12.34
2024-02-11T02:58:42.740Z,11.84
2024-02-11T03:01:13.378Z,11.92
2024-02-11T03:03:42.450Z,12.10
2024-02-11T03:06:11.274Z,12.17
2024-02-11T03:08:48.941Z,12.22
2024-02-11T03:11:17.867Z,12.02
2024-02-11T03:13:53.082Z,12.22
2024-02-11T03:16:22.317Z,12.04
2024-02-11T03:18:52.272Z,11.85
2024-02-11T03:21:24.169Z,11.79
2024-02-11T03:23:58.044Z,12.03
2024-02-11T03:26:27.605Z,11.99
2024-02-11T03:28:58.193Z,11.97
2024-02-11T03:31:32.246Z,11.98
2024-02-11T03:34:02.325Z,11.99
2024-02-11T03:36:33.031Z,12.18
2024-02-11T03:39:05.744Z,12.03
2024-02-11T03:41:36.787Z,12.00
2024-02-11T03:44:06.430Z,12.08
2024-02-11T03:46:36.120Z,12.20
2024-02-11T03:49:05.405Z,11.81
2024-02-11T03:51:36.176Z,12.15
2024-02-11T03:54:06.597Z,11.82
2024-02-11T03:56:36.559Z,11.82
2024-02-11T03:59:05.944Z,12.10
2024-02-11T04:01:38.959Z,12.12
2024-02-11T04:04:07.962Z,11.63
2024-02-11T04:06:38.961Z,11.72
2024-02-11T04:09:11.018Z,11.65
2024-02-11T04:11:40.214Z,11.87
2024-02-11T04:14:10.735Z,12.12
2024-02-11T04:16:45.111Z,11.80
2024-02-11T04:19:14.054Z,11.41
2024-02-11T04:21:45.605Z,11.53
2024-02-11T04:24:17.235Z,11.87
2024-02-11T04:26:48.419Z,11.75
2024-02-11T04:29:17.086Z,11.78
2024-02-11T04:31:52.533Z,11.54
2024-02-11T04:34:30.383Z,12.20
2024-02-11T04:36:59.353Z,11.75
2024-02-11T04:39:32.820Z,11.99
2024-02-11T04:42:01.907Z,12.10
2024-02-11T04:44:36.647Z,11.85
2024-02-11T04:47:05.621Z,12.22
2024-02-11T04:49:37.059Z,12.25
2024-02-11T04:52:08.693Z,12.31
2024-02-11T04:54:44.385Z,11.75
2024-02-11T04:57:19.918Z,12.19
2024-02-11T04:59:49.186Z,12.28
2024-02-11T05:02:20.615Z,12.31
2024-02-11T05:04:51.690Z,12.22
2024-02-11T05:07:23.721Z,12.03
2024-02-11T05:09:54.038Z,11.89
2024-02-11T05:12:23.184Z,12.03
2024-02-11T05:14:52.433Z,11.95
2024-02-11T05:17:23.209Z,12.10
2024-02-11T05:19:54.787Z,11.44
2024-02-11T05:22:27.313Z,11.39
2024-02-11T05:24:58.908Z,11.74
2024-02-11T05:27:28.760Z,12.11
2024-02-11T05:29:58.100Z,11.94
2024-02-11T05:32:29.876Z,11.92
2024-02-11T05:34:59.927Z,12.10
2024-02-11T05:37:30.243Z,11.89
2024-02-11T05:40:00.540Z,11.94
2024-02-11T05:42:33.682Z,11.54
2024-02-11T05:45:02.600Z,12.09
2024-02-11T05:47:34.457Z,11.62
2024-02-11T05:50:06.545Z,11.31
2024-02-11T05:52:37.333Z,11.45
2024-02-11T05:55:13.315Z,11.31
2024-02-11T05:57:42.634Z,11.43
2024-02-11T06:00:19.877Z,11.45
2024-02-11T06:02:54.452Z,11.45
2024-02-11T06:05:30.878Z,11.56
2024-02-11T06:08:05.067Z,11.58
2024-02-11T06:10:35.547Z,11.60
2024-02-11T06:13:10.612Z,11.44
2024-02-11T06:15:46.020Z,11.34
2024-02-11T06:18:15.372Z,11.20
2024-02-11T06:20:47.636Z,10.85
2024-02-11T06:23:18.189Z,11.16
2024-02-11T06:25:58.448Z,11.34
2024-02-11T06:28:29.223Z,10.95
2024-02-11T06:30:57.653Z,11.28
2024-02-11T06:33:28.138Z,10.92
2024-02-11T06:35:58.952Z,11.17
2024-02-11T06:38:32.553Z,11.49
2024-02-11T06:41:02.590Z,10.95
2024-02-11T06:43:36.072Z,11.29
2024-02-11T06:46:05.663Z,10.78
2024-02-11T06:48:38.049Z,10.83
2024-02-11T06:51:08.458Z,10.90
2024-02-11T06:53:38.009Z,11.29
2024-02-11T06:56:09.192Z,11.25
2024-02-11T06:58:42.726Z,11.08
2024-02-11T07:01:15.221Z,11.52
2024-02-11T07:03:53.029Z,10.89
2024-02-11T07:06:24.596Z,11.31
2024-02-11T07:08:53.628Z,11.14
2024-02-11T07:11:24.547Z,11.31
2024-02-11T07:13:54.485Z,11.42
2024-02-11T07:16:29.353Z,11.40
2024-02-11T07:18:58.923Z,11.23
2024-02-11T07:21:38.041Z,11.43
2024-02-11T07:24:10.272Z,11.46
2024-02-11T07:26:40.637Z,11.61
2024-02-11T07:29:11.297Z,11.67
2024-02-11T07:31:41.361Z,11.63
2024-02-11T07:34:15.580Z,11.50
2024-02-11T07:36:45.781Z,11.81
2024-02-11T07:39:24.154Z,11.28
2024-02-11T07:41:59.574Z,11.46
2024-02-11T07:44:29.742Z,11.37
2024-02-11T07:47:07.503Z,11.71
2024-02-11T07:49:39.964Z,11.58
2024-02-11T07:52:08.807Z,11.50
2024-02-11T07:54:40.882Z,11.62
2024-02-11T07:57:11.812Z,11.70
2024-02-11T07:59:40.774Z,11.78
2024-02-11T08:02:10.137Z,11.18
2024-02-11T08:04:39.297Z,11.16
2024-02-11T08:07:07.195Z,11.02
2024-02-11T08:09:37.054Z,10.63
2024-02-11T08:12:15.607Z,11.35
2024-02-11T08:14:45.022Z,11.46
2024-02-11T08:17:16.770Z,11.84
2024-02-11T08:19:49.129Z,11.63
2024-02-11T08:22:20.697Z,11.74
2024-02-11T08:24:49.383Z,11.83
2024-02-11T08:27:19.641Z,11.81
2024-02-11T08:29:53.775Z,11.85
2024-02-11T08:32:22.801Z,11.81
2024-02-11T08:34:54.761Z,12.10
2024-02-11T08:37:24.028Z,11.91
2024-02-11T08:39:52.699Z,10.99
2024-02-11T08:42:22.976Z,11.71
2024-02-11T08:44:54.331Z,11.63
2024-02-11T08:47:23.171Z,11.80
2024-02-11T08:49:58.862Z,11.95
2024-02-11T08:52:28.146Z,11.81
2024-02-11T08:54:58.086Z,12.05
2024-02-11T08:57:28.645Z,11.87
2024-02-11T09:00:01.183Z,11.76
2024-02-11T09:02:32.252Z,11.50
2024-02-11T09:05:05.659Z,11.56
2024-02-11T09:07:36.264Z,11.43
2024-02-11T09:10:15.301Z,12.03
2024-02-11T09:12:46.075Z,11.65
2024-02-11T09:15:18.089Z,11.39
2024-02-11T09:17:55.453Z,11.59
2024-02-11T09:20:32.341Z,11.29
2024-02-11T09:23:01.182Z,10.76
2024-02-11T09:25:44.144Z,10.44
2024-02-11T09:28:15.012Z,10.89
2024-02-11T09:30:43.980Z,11.04
2024-02-11T09:33:12.477Z,11.30
2024-02-11T09:35:41.175Z,11.27
2024-02-11T09:38:16.602Z,11.72
2024-02-11T09:40:45.826Z,11.39
2024-02-11T09:43:17.998Z,11.69
2024-02-11T09:45:47.041Z,11.33
2024-02-11T09:48:16.984Z,11.13
2024-02-11T09:50:45.829Z,11.86
2024-02-11T09:53:19.107Z,11.89
2024-02-11T09:55:48.372Z,11.98
2024-02-11T09:58:25.951Z,12.11
2024-02-11T10:01:00.778Z,12.02
2024-02-11T10:03:29.916Z,11.97
2024-02-11T10:06:11.366Z,12.10
2024-02-11T10:08:47.270Z,12.07
2024-02-11T10:11:18.976Z,12.68
2024-02-11T10:14:00.956Z,12.76
2024-02-11T10:16:30.100Z,13.06
2024-02-11T10:19:00.542Z,13.29
2024-02-11T10:21:31.371Z,13.12
2024-02-11T10:24:00.983Z,12.67
2024-02-11T10:26:33.590Z,11.86
2024-02-11T10:29:06.778Z,11.99
2024-02-11T10:31:41.424Z,12.32
2024-02-11T10:34:15.895Z,12.86
2024-02-11T10:36:48.413Z,12.49
2024-02-11T10:39:17.673Z,12.69
2024-02-11T10:41:46.015Z,12.87
2024-02-11T10:44:23.714Z,12.78
2024-02-11T10:46:58.078Z,12.27
2024-02-11T10:49:27.912Z,12.50
2024-02-11T10:52:01.509Z,12.48
2024-02-11T10:54:31.139Z,11.89
2024-02-11T10:57:03.001Z,12.31
2024-02-11T10:59:36.279Z,12.62
2024-02-11T11:02:07.339Z,12.89
2024-02-11T11:04:38.291Z,12.74
2024-02-11T11:07:13.759Z,12.88
2024-02-11T11:09:42.704Z,13.17
2024-02-11T11:12:19.443Z,13.63
2024-02-11T11:14:57.406Z,13.10
2024-02-11T11:17:35.280Z,12.92
2024-02-11T11:20:14.308Z,13.54
2024-02-11T11:22:43.341Z,13.74
2024-02-11T11:25:18.275Z,13.53
2024-02-11T11:27:47.749Z,12.60
2024-02-11T11:30:21.228Z,12.77
2024-02-11T11:32:54.777Z,13.22
2024-02-11T11:35:29.223Z,13.05
2024-02-11T11:38:02.111Z,13.31
2024-02-11T11:40:31.650Z,13.10
2024-02-11T11:43:13.580Z,13.23
2024-02-11T11:45:52.970Z,13.28
2024-02-11T11:48:24.455Z,13.42
2024-02-11T11:50:57.657Z,13.50
2024-02-11T11:53:31.116Z,13.67
2024-02-11T11:56:02.908Z,13.38
2024-02-11T11:58:36.508Z,13.37
2024-02-11T12:01:08.358Z,12.94
2024-02-11T12:03:42.705Z,13.18
2024-02-11T12:06:24.522Z,13.46
2024-02-11T12:08:58.012Z,13.08
2024-02-11T12:11:26.851Z,13.50
2024-02-11T12:13:56.023Z,13.24
2024-02-11T12:16:28.009Z,13.43
2024-02-11T12:18:59.969Z,13.03
2024-02-11T12:21:28.441Z,13.37
2024-02-11T12:24:02.023Z,12.97
2024-02-11T12:26:31.043Z,13.18
2024-02-11T12:29:01.470Z,13.76
2024-02-11T12:31:31.311Z,13.73
2024-02-11T12:34:03.266Z,13.81
2024-02-11T12:36:32.341Z,14.07
2024-02-11T12:39:04.647Z,14.19
2024-02-11T12:41:34.185Z,13.88
2024-02-11T12:44:09.058Z,13.95
2024-02-11T12:46:38.930Z,14.19
2024-02-11T12:49:09.791Z,14.19
2024-02-11T12:51:38.530Z,14.30
2024-02-11T12:54:08.759Z,14.40
2024-02-11T12:56:40.987Z,14.42
2024-02-11T12:59:12.861Z,14.39
2024-02-11T13:01:58.530Z,14.57
2024-02-11T13:04:34.764Z,14.57
2024-02-11T13:07:03.749Z,14.56
2024-02-11T13:09:38.843Z,14.65
2024-02-11T13:12:07.822Z,14.75
2024-02-11T13:14:37.583Z,14.73
2024-02-11T13:17:08.432Z,14.69
2024-02-11T13:19:39.664Z,14.86
2024-02-11T13:22:14.381Z,14.91
2024-02-11T13:24:50.693Z,15.19
2024-02-11T13:27:22.252Z,15.03
2024-02-11T13:29:51.212Z,15.04
2024-02-11T13:32:30.960Z,15.29
2024-02-11T13:35:01.600Z,15.36
2024-02-11T13:37:32.403Z,15.36
2024-02-11T13:40:12.295Z,15.27
2024-02-11T13:42:42.697Z,15.39
2024-02-11T13:45:19.318Z,15.27
2024-02-11T13:47:49.835Z,15.32
2024-02-11T13:50:19.537Z,15.25
2024-02-11T13:52:52.122Z,15.35
2024-02-11T13:55:22.114Z,15.30
2024-02-11T13:57:55.309Z,15.31
2024-02-11T14:00:25.453Z,15.25
2024-02-11T14:02:59.869Z,15.32
2024-02-11T14:05:29.294Z,15.31
2024-02-11T14:08:05.087Z,15.22
2024-02-11T14:10:41.554Z,15.15
2024-02-11T14:13:10.451Z,15.17
2024-02-11T14:15:45.036Z,15.12
2024-02-11T14:18:21.382Z,15.07
2024-02-11T14:20:53.900Z,15.11
2024-02-11T14:23:27.253Z,15.28
2024-02-11T14:25:56.052Z,15.04
2024-02-11T14:28:25.399Z,15.17
2024-02-11T14:30:54.644Z,15.01
2024-02-11T14:33:27.305Z,15.11
2024-02-11T14:35:59.298Z,15.02
2024-02-11T14:38:30.724Z,15.13
2024-02-11T14:41:01.135Z,15.32
2024-02-11T14:43:30.418Z,15.23
2024-02-11T14:45:59.747Z,15.29
2024-02-11T14:48:33.580Z,15.20
2024-02-11T14:51:03.465Z,14.96
2024-02-11T14:53:33.938Z,15.06
2024-02-11T14:56:02.917Z,15.04
2024-02-11T14:58:35.328Z,14.89
2024-02-11T15:01:07.811Z,14.91
2024-02-11T15:03:47.881Z,15.12
2024-02-11T15:06:18.374Z,14.96
2024-02-11T15:08:48.282Z,14.89
2024-02-11T15:11:19.689Z,14.96
2024-02-11T15:13:51.339Z,14.81
2024-02-11T15:16:21.889Z,14.88
2024-02-11T15:18:51.930Z,15.07
2024-02-11T15:21:24.829Z,14.98
2024-02-11T15:23:55.225Z,14.63
2024-02-11T15:26:25.449Z,14.96
2024-02-11T15:28:54.238Z,14.97
2024-02-11T15:31:26.395Z,14.90
2024-02-11T15:33:56.896Z,14.80
2024-02-11T15:36:25.989Z,14.68
2024-02-11T15:38:54.644Z,14.64
2024-02-11T15:41:23.724Z,14.70
2024-02-11T15:43:55.222Z,14.67
2024-02-11T15:46:30.613Z,14.72
2024-02-11T15:49:01.013Z,14.64
2024-02-11T15:51:32.410Z,14.70
2024-02-11T15:54:01.361Z,14.67
2024-02-11T15:56:31.685Z,14.63
2024-02-11T15:59:01.484Z,14.57
2024-02-11T16:01:37.580Z,14.51
2024-02-11T16:04:15.254Z,14.39
2024-02-11T16:06:44.043Z,14.36
2024-02-11T16:09:16.863Z,14.61
2024-02-11T16:11:46.162Z,14.46
2024-02-11T16:14:24.851Z,14.57
2024-02-11T16:17:02.920Z,14.40
2024-02-11T16:22:15.873Z,14.32
2024-02-11T16:24:46.424Z,14.19
2024-02-11T16:27:15.122Z,14.38
2024-02-11T16:29:44.634Z,14.30
2024-02-11T16:32:13.366Z,14.27
2024-02-11T16:34:46.226Z,14.35
2024-02-11T16:37:16.906Z,14.27
2024-02-11T16:39:48.749Z,14.28
2024-02-11T16:42:18.676Z,14.23
2024-02-11T16:44:50.613Z,14.06
2024-02-11T16:47:22.761Z,14.19
2024-02-11T16:49:56.343Z,14.05
2024-02-11T16:52:25.450Z,14.09
2024-02-11T16:54:54.092Z,14.10
2024-02-11T16:57:22.457Z,14.18
2024-02-11T16:59:55.620Z,14.05
2024-02-11T17:02:24.329Z,14.13
2024-02-11T17:04:55.170Z,14.14
2024-02-11T17:07:26.109Z,14.08
2024-02-11T17:09:56.335Z,13.95
2024-02-11T17:12:24.699Z,14.04
2024-02-11T17:14:59.003Z,14.09
2024-02-11T17:17:27.793Z,14.12
2024-02-11T17:20:00.209Z,14.21
2024-02-11T17:22:30.485Z,14.15
2024-02-11T17:25:00.443Z,14.24
2024-02-11T17:27:29.148Z,14.06
2024-02-11T17:30:08.282Z,14.09
2024-02-11T17:32:45.068Z,14.16
2024-02-11T17:35:18.333Z,14.03
2024-02-11T17:37:56.445Z,14.02
2024-02-11T17:40:28.392Z,13.90
2024-02-11T17:42:57.044Z,14.03
2024-02-11T17:45:29.212Z,14.00
2024-02-11T17:47:59.171Z,14.05
2024-02-11T17:50:31.510Z,14.07
2024-02-11T17:53:01.972Z,13.95
2024-02-11T17:55:34.616Z,13.97
2024-02-11T17:58:03.923Z,14.01
2024-02-11T18:00:45.943Z,14.01
2024-02-11T18:03:27.864Z,13.95
2024-02-11T18:06:01.969Z,14.03
2024-02-11T18:08:32.056Z,13.87
2024-02-11T18:11:00.748Z,13.88
2024-02-11T18:13:29.720Z,13.84
2024-02-11T18:16:02.419Z,13.90
2024-02-11T18:18:34.604Z,13.91
2024-02-11T18:21:11.226Z,13.88
2024-02-11T18:23:48.666Z,13.95
2024-02-11T18:26:19.517Z,13.87
2024-02-11T18:28:48.796Z,13.93
2024-02-11T18:31:18.430Z,13.75
2024-02-11T18:33:47.645Z,14.05
2024-02-11T18:36:16.082Z,12.88
2024-02-11T18:38:48.993Z,11.89
2024-02-11T18:41:18.212Z,11.12
2024-02-11T18:43:51.690Z,11.26
2024-02-11T18:46:22.022Z,10.85
2024-02-11T18:48:53.270Z,10.61
2024-02-11T18:51:21.703Z,10.52
2024-02-11T18:53:55.157Z,10.32
2024-02-11T18:56:24.000Z,10.31
2024-02-11T18:59:00.407Z,10.33
2024-02-11T19:01:29.593Z,10.45
2024-02-11T19:03:58.437Z,10.51
2024-02-11T19:06:28.654Z,10.41
2024-02-11T19:08:59.904Z,10.42
2024-02-11T19:11:29.081Z,10.17
2024-02-11T19:14:02.138Z,10.35
2024-02-11T19:16:30.856Z,10.13
2024-02-11T19:19:00.276Z,10.23
2024-02-11T19:21:31.671Z,10.28
2024-02-11T19:24:07.250Z,10.15
2024-02-11T19:26:38.626Z,10.00
2024-02-11T19:29:14.940Z,10.18
2024-02-11T19:31:47.891Z,10.44
2024-02-11T19:34:39.824Z,10.14
2024-02-11T19:37:11.488Z,10.24
2024-02-11T19:39:41.897Z,10.06
2024-02-11T19:42:14.786Z,10.07
2024-02-11T19:44:43.966Z,10.12
2024-02-11T19:47:13.162Z,10.12
2024-02-11T19:49:42.009Z,10.02
2024-02-11T19:52:11.478Z,10.23
2024-02-11T19:54:43.375Z,10.31
2024-02-11T19:57:17.113Z,10.30
2024-02-11T19:59:46.267Z,10.31
2024-02-11T20:02:18.601Z,10.14
2024-02-11T20:04:48.147Z,10.13
2024-02-11T20:07:18.765Z,10.08
2024-02-11T20:09:49.244Z,10.16
2024-02-11T20:12:22.070Z,10.13
2024-02-11T20:14:52.455Z,10.10
2024-02-11T20:17:22.577Z,10.00
2024-02-11T20:19:53.068Z,9.90
2024-02-11T20:22:22.406Z,9.81
2024-02-11T20:24:53.014Z,9.90
2024-02-11T20:27:25.739Z,9.98
2024-02-11T20:29:55.180Z,9.98
2024-02-11T20:32:29.545Z,9.93
2024-02-11T20:34:59.216Z,9.88
2024-02-11T20:37:41.943Z,9.85
2024-02-11T20:40:17.153Z,9.82
2024-02-11T20:42:54.180Z,9.83
2024-02-11T20:45:24.271Z,9.70
2024-02-11T20:47:55.950Z,9.76
2024-02-11T20:50:25.600Z,9.95
2024-02-11T20:52:54.504Z,9.80
2024-02-11T20:55:27.896Z,9.67
2024-02-11T20:57:58.631Z,9.69
2024-02-11T21:00:28.280Z,9.54
2024-02-11T21:02:59.001Z,9.43
2024-02-11T21:05:28.764Z,9.43
2024-02-11T21:08:01.239Z,9.30
2024-02-11T21:10:33.496Z,9.51
2024-02-11T21:13:25.382Z,9.49
2024-02-11T21:15:54.125Z,9.53
2024-02-11T21:18:27.116Z,9.53
2024-02-11T21:20:56.597Z,9.28
2024-02-11T21:23:26.236Z,9.40
2024-02-11T21:25:56.408Z,9.36
2024-02-11T21:28:30.721Z,9.42
2024-02-11T21:31:20.025Z,9.45
2024-02-11T21:33:51.872Z,9.39
2024-02-11T21:36:20.372Z,9.19
2024-02-11T21:38:52.365Z,9.14
2024-02-11T21:41:22.420Z,9.25
2024-02-11T21:43:54.645Z,9.36
2024-02-11T21:46:26.509Z,9.43
2024-02-11T21:49:03.843Z,9.30
2024-02-11T21:51:37.864Z,8.97
2024-02-11T21:54:07.257Z,9.14
2024-02-11T21:56:39.991Z,9.24
2024-02-11T21:59:09.159Z,9.26
2024-02-11T22:01:38.416Z,9.29
2024-02-11T22:04:09.907Z,9.29
2024-02-11T22:06:45.188Z,9.37
2024-02-11T22:09:15.028Z,9.37
2024-02-11T22:11:46.570Z,9.38
2024-02-11T22:14:15.941Z,9.42
2024-02-11T22:16:45.447Z,9.39
2024-02-11T22:19:13.886Z,9.16
2024-02-11T22:21:49.110Z,8.94
2024-02-11T22:24:18.602Z,9.17
2024-02-11T22:26:51.147Z,9.14
2024-02-11T22:29:19.554Z,9.29
2024-02-11T22:31:52.022Z,9.30
2024-02-11T22:34:21.413Z,9.31
2024-02-11T22:36:51.430Z,9.18
2024-02-11T22:39:22.498Z,9.26
2024-02-11T22:41:53.378Z,9.32
2024-02-11T22:44:22.146Z,9.09
2024-02-11T22:46:54.257Z,9.18
2024-02-11T22:49:23.095Z,9.36
2024-02-11T22:51:56.027Z,9.50
2024-02-11T22:54:26.164Z,9.60
2024-02-11T22:57:00.446Z,9.51
2024-02-11T22:59:30.147Z,9.64
2024-02-11T23:02:01.277Z,9.71
2024-02-11T23:04:30.277Z,9.50
2024-02-11T23:07:01.546Z,9.54
2024-02-11T23:09:31.091Z,9.53
2024-02-11T23:12:04.032Z,9.65
2024-02-11T23:14:33.313Z,9.76
2024-02-11T23:17:05.639Z,9.83
2024-02-11T23:19:54.234Z,10.01
2024-02-11T23:22:26.841Z,9.75
2024-02-11T23:24:55.506Z,9.69
2024-02-11T23:27:28.718Z,9.83
2024-02-11T23:29:57.416Z,9.69
2024-02-11T23:32:26.730Z,9.66
2024-02-11T23:34:59.125Z,9.49
2024-02-11T23:37:36.610Z,9.57
2024-02-11T23:40:08.455Z,9.61
2024-02-11T23:42:41.053Z,9.80
2024-02-11T23:45:14.174Z,10.01
2024-02-11T23:47:43.286Z,10.03
2024-02-11T23:50:20.365Z,9.94
2024-02-11T23:52:49.602Z,10.13
2024-02-11T23:55:18.646Z,10.05
2024-02-11T23:57:49.075Z,10.16
